Time;durP1;ratioP1;P1;durP2;ratioP2;P2;SDS_P1;SDS_P2;PMS_P1;PMS_P2;Temp;Humidity;BMP_temperature;BMP_pressure;BME280_temperature;BME280_humidity;BME280_pressure;Samples;Min_cycle;Max_cycle;Signal;HPM_P1;HPM_P2
2021/01/17 00:00:34;;;;;;;32.58;19.83;;;;;;;6.17;82.85;101398.84;5117165;28;20120;-66
2021/01/17 00:03:01;;;;;;;35.47;19.60;;;;;;;6.00;83.90;101387.28;5115808;28;20052;-66
2021/01/17 00:05:29;;;;;;;40.17;21.25;;;;;;;5.97;83.89;101385.88;5097367;28;20047;-63
2021/01/17 00:08:06;;;;;;;41.25;19.80;;;;;;;6.00;84.23;101384.53;5115963;28;20070;-67
2021/01/17 00:10:37;;;;;;;34.33;18.75;;;;;;;6.07;83.49;101374.97;5097654;28;20044;-73
2021/01/17 00:13:06;;;;;;;33.72;19.38;;;;;;;6.22;83.90;101377.78;5081389;28;20052;-65
2021/01/17 00:15:34;;;;;;;33.35;17.48;;;;;;;6.46;83.05;101368.00;5115898;28;20381;-63
2021/01/17 00:18:02;;;;;;;29.45;17.05;;;;;;;6.54;82.09;101372.94;5115245;28;20043;-66
2021/01/17 00:20:29;;;;;;;34.60;18.70;;;;;;;6.32;82.40;101375.09;5115465;28;20054;-64
2021/01/17 00:23:01;;;;;;;32.88;18.33;;;;;;;6.49;82.30;101375.66;5115706;28;20047;-66
2021/01/17 00:25:28;;;;;;;34.63;16.60;;;;;;;6.50;82.49;101384.72;5115389;28;20052;-66
2021/01/17 00:28:01;;;;;;;34.67;16.40;;;;;;;6.48;82.73;101386.88;5115652;28;20398;-65
2021/01/17 00:30:31;;;;;;;27.67;16.23;;;;;;;6.45;83.01;101390.97;5096973;28;20051;-64
2021/01/17 00:33:00;;;;;;;31.98;15.93;;;;;;;6.42;83.66;101396.16;5115288;28;20137;-66
2021/01/17 00:35:29;;;;;;;29.85;16.30;;;;;;;6.26;84.54;101398.03;5096973;28;20074;-67
2021/01/17 00:37:58;;;;;;;27.02;15.73;;;;;;;6.35;84.90;101390.94;5115187;28;20063;-64
2021/01/17 00:40:26;;;;;;;30.92;15.30;;;;;;;6.66;83.54;101394.56;5097183;28;20051;-69
2021/01/17 00:42:54;;;;;;;36.75;16.70;;;;;;;6.67;83.11;101394.31;5114780;28;20398;-64
2021/01/17 00:45:25;;;;;;;29.00;15.20;;;;;;;6.36;83.75;101395.31;5114865;28;20074;-66
2021/01/17 00:47:52;;;;;;;33.08;15.55;;;;;;;6.32;84.48;101396.13;5115049;28;20447;-66
2021/01/17 00:50:22;;;;;;;;;;;;;;;6.48;84.06;101395.09;5116627;28;20125;-66
2021/01/17 00:52:54;;;;;;;37.75;15.93;;;;;;;6.27;85.47;101394.22;5097965;28;20468;-65
2021/01/17 00:55:26;;;;;;;34.05;16.67;;;;;;;6.20;86.17;101392.81;5096646;28;20078;-64
2021/01/17 00:57:54;;;;;;;27.48;15.02;;;;;;;6.15;86.56;101399.09;5096500;28;20040;-62
2021/01/17 01:00:24;;;;;;;27.73;15.95;;;;;;;6.34;85.93;101397.53;5096395;28;20043;-65
2021/01/17 01:03:13;;;;;;;36.47;15.68;;;;;;;6.48;85.61;101400.56;5096603;28;20066;-64
2021/01/17 01:05:40;;;;;;;27.90;15.05;;;;;;;6.40;85.57;101396.44;5114411;28;20048;-63
2021/01/17 01:08:07;;;;;;;31.48;16.05;;;;;;;6.39;85.73;101389.34;5115171;28;20054;-67
2021/01/17 01:10:34;;;;;;;29.65;15.27;;;;;;;6.29;85.71;101394.78;5114469;28;20475;-65
2021/01/17 01:13:01;;;;;;;33.58;15.98;;;;;;;6.37;85.48;101396.97;5114174;28;20047;-65
2021/01/17 01:15:28;;;;;;;32.00;15.77;;;;;;;6.30;86.30;101404.63;5115156;28;20106;-66
2021/01/17 01:17:55;;;;;;;28.83;15.40;;;;;;;6.27;85.75;101407.91;5114665;28;20048;-63
2021/01/17 01:20:22;;;;;;;31.00;15.02;;;;;;;6.29;86.47;101400.25;5115462;28;20047;-65
2021/01/17 01:22:48;;;;;;;31.48;15.77;;;;;;;6.35;85.68;101395.59;5114638;28;20052;-63
2021/01/17 01:25:15;;;;;;;25.40;14.02;;;;;;;6.42;85.73;101394.25;5096207;28;20051;-64
2021/01/17 01:27:48;;;;;;;30.90;14.73;;;;;;;6.27;86.00;101391.50;5114663;28;20052;-64
2021/01/17 01:30:16;;;;;;;31.15;15.05;;;;;;;6.32;86.01;101396.97;5114371;28;20048;-66
2021/01/17 01:32:43;;;;;;;33.70;14.10;;;;;;;6.38;86.45;101400.56;5113899;28;20495;-67
2021/01/17 01:35:10;;;;;;;28.67;14.18;;;;;;;6.37;86.18;101399.72;5096050;28;20510;-64
2021/01/17 01:37:37;;;;;;;32.03;13.35;;;;;;;6.51;85.64;101400.84;5114158;28;20160;-65
2021/01/17 01:40:05;;;;;;;31.48;13.38;;;;;;;6.40;85.62;101407.38;5113724;28;20051;-64
2021/01/17 01:42:32;;;;;;;25.08;13.35;;;;;;;6.35;86.36;101404.63;5114132;28;20101;-64
2021/01/17 01:44:59;;;;;;;33.45;14.07;;;;;;;6.42;86.11;101407.09;5114654;28;20047;-63
2021/01/17 01:47:28;;;;;;;28.42;13.65;;;;;;;6.24;86.48;101405.69;5097446;28;20054;-66
2021/01/17 01:49:56;;;;;;;32.55;13.25;;;;;;;6.36;86.50;101413.66;5113693;28;20067;-65
2021/01/17 01:52:23;;;;;;;24.90;12.77;;;;;;;6.36;85.94;101419.16;5096280;28;20066;-63
2021/01/17 01:54:50;;;;;;;28.50;12.48;;;;;;;6.50;86.65;101426.56;5113757;28;20395;-64
2021/01/17 01:57:17;;;;;;;31.30;13.75;;;;;;;6.35;86.17;101425.69;5096282;28;20050;-65
2021/01/17 01:59:45;;;;;;;28.83;12.95;;;;;;;6.35;86.67;101415.56;5113660;28;20051;-66
2021/01/17 02:02:13;;;;;;;32.78;12.38;;;;;;;6.51;86.22;101419.19;5079097;28;20050;-64
2021/01/17 02:09:27;;;;;;;32.60;12.25;;;;;;;6.47;86.29;101410.69;5113606;28;20040;-63
2021/01/17 02:12:23;;;;;;;28.98;11.45;;;;;;;6.77;85.07;101409.94;5095694;28;20375;-63
2021/01/17 02:15:30;;;;;;;29.40;11.95;;;;;;;6.48;85.23;101417.00;5094676;28;20067;-65
2021/01/17 02:21:57;;;;;;;30.88;11.82;;;;;;;6.46;85.25;101427.38;5095424;28;20047;-63
2021/01/17 02:24:36;;;;;;;27.98;12.02;;;;;;;6.36;85.70;101417.22;5113704;28;20054;-65
2021/01/17 02:27:03;;;;;;;30.27;12.45;;;;;;;6.27;86.44;101432.53;5095642;28;20047;-66
2021/01/17 02:29:39;;;;;;;25.38;11.77;;;;;;;6.27;86.92;101434.44;5096794;28;20047;-64
2021/01/17 02:32:07;;;;;;;31.20;11.45;;;;;;;6.31;86.51;101433.59;5095859;28;20048;-63
2021/01/17 02:34:34;;;;;;;24.42;12.40;;;;;;;6.42;86.34;101442.69;5095206;28;20055;-63
2021/01/17 02:37:31;;;;;;;24.30;11.63;;;;;;;6.53;85.64;101447.09;5095400;28;20046;-64
2021/01/17 02:40:02;;;;;;;25.55;10.65;;;;;;;6.43;85.12;101447.09;5094467;28;20479;-62
2021/01/17 02:42:30;;;;;;;23.13;10.95;;;;;;;6.59;84.43;101452.31;5112715;28;20051;-63
2021/01/17 02:44:59;;;;;;;24.60;10.80;;;;;;;6.56;84.82;101446.56;5112806;28;20043;-65
2021/01/17 02:47:27;;;;;;;28.10;10.95;;;;;;;6.36;85.88;101446.50;5095134;28;20044;-64
2021/01/17 02:49:54;;;;;;;24.75;10.40;;;;;;;6.45;85.76;101442.97;5113251;28;20047;-64
2021/01/17 02:52:32;;;;;;;27.63;10.40;;;;;;;6.36;85.46;101444.56;5094456;28;20044;-64
2021/01/17 02:55:00;;;;;;;22.70;9.35;;;;;;;6.48;85.60;101436.97;5096072;28;20507;-65
2021/01/17 02:57:27;;;;;;;19.65;9.40;;;;;;;6.43;85.42;101438.88;5112952;28;20078;-63
2021/01/17 03:00:04;;;;;;;27.55;10.07;;;;;;;6.54;85.26;101435.06;5078721;28;20513;-63
2021/01/17 03:02:36;;;;;;;25.92;10.27;;;;;;;6.67;84.57;101431.81;5112513;28;20070;-65
2021/01/17 03:05:05;;;;;;;23.98;9.90;;;;;;;6.74;85.07;101430.47;5099346;28;20395;-64
2021/01/17 03:07:35;;;;;;;22.05;9.50;;;;;;;6.82;84.23;101432.66;5116760;28;20494;-65
2021/01/17 03:10:08;;;;;;;23.30;9.77;;;;;;;6.85;83.81;101429.38;5082710;28;20051;-64
2021/01/17 03:12:35;;;;;;;25.88;9.32;;;;;;;6.87;84.04;101439.25;5117108;28;20052;-64
2021/01/17 03:15:04;;;;;;;24.13;9.35;;;;;;;6.95;83.66;101436.81;5117275;28;20043;-66
2021/01/17 03:17:31;;;;;;;22.13;8.68;;;;;;;6.93;83.84;101441.72;5117145;28;20376;-63
2021/01/17 03:19:58;;;;;;;23.42;8.88;;;;;;;6.88;83.67;101441.72;5117019;28;20051;-64
2021/01/17 03:22:25;;;;;;;22.00;7.60;;;;;;;6.82;84.65;101443.63;5117333;28;20088;-63
2021/01/17 03:24:52;;;;;;;24.67;7.85;;;;;;;6.81;84.84;101446.63;5117045;28;20055;-63
2021/01/17 03:27:20;;;;;;;21.52;7.90;;;;;;;6.87;84.51;101453.75;5116259;28;20063;-63
2021/01/17 03:29:47;;;;;;;16.33;7.40;;;;;;;6.78;84.81;101456.19;5117003;28;20410;-63
2021/01/17 03:32:13;;;;;;;25.15;8.20;;;;;;;6.87;84.61;101458.44;5116432;28;20051;-63
2021/01/17 03:34:47;;;;;;;25.35;7.80;;;;;;;6.93;84.83;101457.31;5116289;28;20072;-64
2021/01/17 03:37:19;;;;;;;19.60;7.75;;;;;;;6.99;84.27;101456.25;5116779;28;20050;-63
2021/01/17 03:39:46;;;;;;;25.40;8.02;;;;;;;6.95;84.81;101464.19;5116855;28;20047;-63
2021/01/17 03:42:14;;;;;;;18.85;7.45;;;;;;;6.82;85.00;101457.31;5116292;28;20044;-66
2021/01/17 03:44:40;;;;;;;22.65;7.90;;;;;;;6.88;84.62;101462.81;5115982;28;20055;-65
2021/01/17 03:47:08;;;;;;;20.13;8.10;;;;;;;7.23;83.60;101454.63;5116185;28;20055;-65
2021/01/17 03:49:36;;;;;;;20.83;7.50;;;;;;;7.16;83.13;101460.38;5116446;28;20051;-64
2021/01/17 03:52:03;;;;;;;23.48;8.40;;;;;;;7.11;82.95;101465.03;5116723;28;20063;-64
2021/01/17 03:54:30;;;;;;;18.95;6.82;;;;;;;6.99;84.25;101470.75;5116784;28;20391;-65
2021/01/17 03:56:57;;;;;;;17.90;6.85;;;;;;;7.03;83.89;101463.66;5116914;28;20104;-66
2021/01/17 03:59:23;;;;;;;22.52;7.30;;;;;;;6.94;84.24;101469.94;5116833;28;20059;-66
2021/01/17 04:01:51;;;;;;;21.23;7.15;;;;;;;6.83;84.54;101460.88;5116649;28;20051;-68
2021/01/17 04:04:18;;;;;;;18.02;6.40;;;;;;;6.83;84.72;101466.34;5116038;28;20515;-66
2021/01/17 04:06:45;;;;;;;25.15;7.57;;;;;;;6.92;84.73;101469.38;5116240;28;20392;-65
2021/01/17 04:09:12;;;;;;;25.15;6.82;;;;;;;7.11;83.82;101470.50;5116024;28;20048;-66
2021/01/17 04:11:39;;;;;;;23.17;7.25;;;;;;;7.06;84.19;101476.00;5115806;28;20055;-65
2021/01/17 04:14:06;;;;;;;20.08;6.95;;;;;;;6.97;84.51;101475.69;5115878;28;20075;-65
2021/01/17 04:16:33;;;;;;;15.55;6.40;;;;;;;6.85;84.81;101486.88;5114784;28;20051;-67
2021/01/17 04:19:00;;;;;;;22.33;6.93;;;;;;;6.93;84.80;101487.44;5115895;28;20044;-67
2021/01/17 04:21:27;;;;;;;24.40;6.88;;;;;;;6.92;84.27;101492.13;5115723;28;20059;-68
2021/01/17 04:23:54;;;;;;;24.05;6.60;;;;;;;6.95;84.56;101486.09;5115857;28;20062;-67
2021/01/17 04:26:21;;;;;;;17.23;6.93;;;;;;;7.15;83.49;101486.13;5114859;28;20063;-66
2021/01/17 04:28:48;;;;;;;16.58;6.63;;;;;;;7.03;83.63;101487.47;5115121;28;20391;-65
2021/01/17 04:31:15;;;;;;;20.45;7.38;;;;;;;6.97;83.26;101494.88;5116165;28;20043;-65
2021/01/17 04:33:42;;;;;;;21.25;6.57;;;;;;;7.11;83.17;101504.22;5115806;28;20051;-66
2021/01/17 04:36:10;;;;;;;21.35;7.30;;;;;;;6.98;83.26;101499.25;5097949;28;20052;-63
2021/01/17 04:38:36;;;;;;;24.70;6.97;;;;;;;6.91;83.83;101509.63;5097435;28;20051;-65
2021/01/17 04:41:04;;;;;;;20.13;7.72;;;;;;;6.74;84.54;101512.59;5114748;28;20055;-64
2021/01/17 04:43:35;;;;;;;23.15;7.20;;;;;;;6.88;84.27;101514.81;5096538;28;20048;-65
2021/01/17 04:46:02;;;;;;;;;;;;;;;6.66;84.67;101509.53;5097968;28;20184;-63
2021/01/17 04:48:30;;;;;;;20.05;7.25;;;;;;;6.71;85.08;101504.09;5115022;28;19927;-66
2021/01/17 04:51:00;;;;;;;25.45;6.80;;;;;;;6.59;86.04;101511.72;5097246;28;20214;-65
2021/01/17 04:53:34;;;;;;;20.23;5.68;;;;;;;6.40;87.28;101508.63;5115633;28;20051;-67
2021/01/17 04:56:21;;;;;;;20.73;6.40;;;;;;;6.58;87.65;101508.16;5115564;28;20399;-69
2021/01/17 04:59:05;;;;;;;21.13;6.28;;;;;;;6.56;87.96;101506.78;5032056;28;20425;-64
2021/01/17 05:01:48;;;;;;;23.33;5.30;;;;;;;6.82;87.64;101500.28;4999926;28;20050;-64
2021/01/17 05:04:34;;;;;;;20.70;5.10;;;;;;;6.81;87.18;101502.22;5031706;28;20049;-67
2021/01/17 05:07:07;;;;;;;13.77;4.60;;;;;;;6.61;87.89;101496.66;5031489;28;20452;-68
2021/01/17 05:09:40;;;;;;;25.77;5.97;;;;;;;6.69;88.05;101509.03;5015057;28;20057;-65
2021/01/17 05:12:13;;;;;;;16.15;4.72;;;;;;;6.91;87.58;101495.94;5032034;28;20054;-68
2021/01/17 05:14:48;;;;;;;19.70;4.53;;;;;;;6.77;87.69;101513.97;5031850;28;20085;-65
2021/01/17 05:17:22;;;;;;;19.70;5.43;;;;;;;6.80;87.88;101499.72;5032342;28;20544;-64
2021/01/17 05:19:49;;;;;;;18.10;5.10;;;;;;;6.90;87.36;101513.47;5031641;28;20056;-67
2021/01/17 05:22:19;;;;;;;19.80;4.88;;;;;;;6.97;87.04;101511.31;5032143;28;20398;-65
2021/01/17 05:24:53;;;;;;;17.63;4.85;;;;;;;6.96;86.45;101512.38;5031615;28;20394;-65
2021/01/17 05:27:20;;;;;;;15.45;4.28;;;;;;;6.94;85.89;101516.50;5030300;28;20045;-65
2021/01/17 05:29:47;;;;;;;16.55;4.35;;;;;;;6.61;87.34;101525.94;5015151;28;20053;-63
2021/01/17 05:32:15;;;;;;;15.48;3.65;;;;;;;6.60;87.54;101524.31;5031963;28;20093;-66
2021/01/17 05:34:42;;;;;;;27.02;4.68;;;;;;;6.60;87.23;101533.34;5031560;28;20050;-65
2021/01/17 05:37:15;;;;;;;20.02;3.63;;;;;;;6.55;87.25;101537.97;5111525;28;20051;-67
2021/01/17 05:40:05;;;;;;;15.55;2.95;;;;;;;6.46;87.47;101534.94;5096465;28;20121;-65
2021/01/17 05:42:38;;;;;;;23.15;4.05;;;;;;;6.48;86.51;101540.97;5098512;28;20399;-67
2021/01/17 05:45:12;;;;;;;18.20;3.20;;;;;;;6.40;87.98;101540.63;5097071;28;20044;-67
2021/01/17 05:47:39;;;;;;;19.63;3.60;;;;;;;6.32;88.14;101535.66;5113908;28;20048;-67
2021/01/17 05:50:12;;;;;;;17.38;3.50;;;;;;;6.72;87.11;101544.06;5114660;28;20048;-64
2021/01/17 05:52:40;;;;;;;14.40;3.85;;;;;;;6.59;86.54;101548.13;5113645;28;20043;-67
2021/01/17 05:55:08;;;;;;;19.73;3.00;;;;;;;6.52;87.29;101555.75;5114341;28;20422;-63
2021/01/17 05:57:35;;;;;;;17.92;2.72;;;;;;;6.57;86.55;101557.69;5113922;28;20046;-66
2021/01/17 06:00:04;;;;;;;17.75;3.17;;;;;;;6.43;86.24;101560.06;5113625;28;20054;-69
2021/01/17 06:02:38;;;;;;;16.77;3.67;;;;;;;6.29;87.56;101569.03;5114445;28;20063;-68
2021/01/17 06:05:08;;;;;;;20.15;3.78;;;;;;;6.31;87.41;101564.13;5096011;28;20054;-67
2021/01/17 06:07:36;;;;;;;15.95;3.30;;;;;;;6.41;87.95;101555.97;5096120;28;20058;-64
2021/01/17 06:10:05;;;;;;;11.70;2.72;;;;;;;6.28;87.05;101570.94;5096193;28;20043;-69
2021/01/17 06:12:38;;;;;;;17.37;2.90;;;;;;;6.10;87.84;101579.56;5113993;28;20055;-69
2021/01/17 06:15:10;;;;;;;12.65;3.42;;;;;;;6.02;88.20;101576.50;5095454;28;20285;-68
2021/01/17 06:17:39;;;;;;;15.38;2.83;;;;;;;6.10;88.64;101587.75;5113378;28;20479;-66
2021/01/17 06:20:11;;;;;;;16.17;2.90;;;;;;;6.00;89.03;101587.69;5113977;28;20067;-68
2021/01/17 06:22:38;;;;;;;13.70;3.30;;;;;;;6.22;88.15;101584.84;5113937;28;20458;-65
2021/01/17 06:25:06;;;;;;;16.17;3.72;;;;;;;6.52;87.39;101585.84;5095401;28;20058;-67
2021/01/17 06:27:32;;;;;;;15.82;3.00;;;;;;;6.53;86.38;101587.50;5095137;28;20047;-67
2021/01/17 06:30:00;;;;;;;22.02;3.38;;;;;;;6.53;85.18;101590.25;5113375;28;20044;-67
2021/01/17 06:32:30;;;;;;;18.42;3.60;;;;;;;6.37;85.46;101580.31;5113556;28;20043;-66
2021/01/17 06:34:58;;;;;;;18.25;3.17;;;;;;;6.40;85.51;101584.41;5113651;28;20062;-64
2021/01/17 06:37:28;;;;;;;15.88;3.50;;;;;;;6.75;84.46;101595.53;5113523;28;20059;-63
2021/01/17 06:39:57;;;;;;;18.08;3.15;;;;;;;6.39;83.40;101597.28;5113287;28;20051;-63
2021/01/17 06:42:25;;;;;;;28.90;4.40;;;;;;;6.72;83.10;101596.91;5113387;28;20071;-67
2021/01/17 06:44:52;;;;;;;19.75;3.75;;;;;;;6.89;82.43;101572.06;5113631;28;20294;-65
2021/01/17 06:47:20;;;;;;;11.55;2.55;;;;;;;7.04;80.96;101561.19;5113315;28;20063;-64
2021/01/17 06:49:49;;;;;;;9.45;2.60;;;;;;;6.80;78.55;101549.84;5113607;28;20047;-66
2021/01/17 06:52:17;;;;;;;16.83;2.90;;;;;;;6.83;79.01;101553.97;5113242;28;20375;-64
2021/01/17 06:54:46;;;;;;;13.68;2.72;;;;;;;6.79;79.05;101559.16;5113985;28;20051;-65
2021/01/17 06:57:14;;;;;;;15.10;2.95;;;;;;;7.21;78.19;101549.97;5094796;28;20052;-64
2021/01/17 06:59:44;;;;;;;14.13;2.88;;;;;;;6.97;78.40;101552.38;5111997;28;20052;-65
2021/01/17 07:02:14;;;;;;;13.57;2.60;;;;;;;6.85;78.95;101555.34;5112948;28;20119;-64
2021/01/17 07:05:26;;;;;;;14.38;2.65;;;;;;;6.88;79.29;101564.94;5095577;28;20055;-67
2021/01/17 07:08:04;;;;;;;11.68;2.53;;;;;;;6.80;79.30;101576.41;5011107;28;20046;-67
2021/01/17 07:10:41;;;;;;;12.80;2.95;;;;;;;7.07;78.62;101581.72;4994535;28;20053;-67
2021/01/17 07:13:14;;;;;;;17.73;2.97;;;;;;;6.80;78.33;101587.34;5074781;28;20056;-61
2021/01/17 07:15:42;;;;;;;13.93;3.55;;;;;;;6.55;78.53;101590.81;5113550;28;20051;-67
2021/01/17 07:18:17;;;;;;;16.58;2.80;;;;;;;6.52;79.16;101585.03;5113503;28;20052;-66
2021/01/17 07:20:48;;;;;;;12.38;2.60;;;;;;;6.60;78.16;101593.56;5113774;28;20040;-64
2021/01/17 07:23:17;;;;;;;18.35;2.70;;;;;;;6.83;77.99;101590.38;5113296;28;20059;-64
2021/01/17 07:25:48;;;;;;;15.90;3.05;;;;;;;6.61;77.09;101589.72;5113612;28;20368;-64
2021/01/17 07:28:19;;;;;;;13.18;2.35;;;;;;;6.42;78.28;101584.97;5095023;28;20066;-64
2021/01/17 07:30:51;;;;;;;16.27;2.42;;;;;;;6.56;77.62;101597.09;5095055;28;20055;-65
2021/01/17 07:33:24;;;;;;;12.52;2.97;;;;;;;6.40;77.51;101600.81;5112962;28;20501;-65
2021/01/17 07:35:52;;;;;;;12.65;2.50;;;;;;;6.34;77.70;101605.47;5128635;28;20386;-63
2021/01/17 07:38:22;;;;;;;14.23;3.22;;;;;;;6.36;77.50;101605.19;5094106;28;20043;-63
2021/01/17 07:41:00;;;;;;;21.05;3.53;;;;;;;6.42;77.20;101612.34;5112296;28;20059;-65
2021/01/17 07:43:31;;;;;;;20.45;3.85;;;;;;;6.41;76.42;101611.53;5112332;28;20505;-67
2021/01/17 07:46:00;;;;;;;12.55;2.53;;;;;;;6.43;75.87;101617.53;5112626;28;20391;-66
2021/01/17 07:48:28;;;;;;;15.52;2.83;;;;;;;6.60;75.77;101633.81;5093975;28;20048;-66
2021/01/17 07:50:57;;;;;;;22.23;2.72;;;;;;;6.39;75.17;101627.38;5113825;28;20047;-64
2021/01/17 07:53:37;;;;;;;18.63;3.10;;;;;;;6.23;76.75;101639.31;5116879;28;20050;-65
2021/01/17 07:56:22;;;;;;;20.20;2.72;;;;;;;6.14;76.88;101645.50;5116267;28;20055;-68
2021/01/17 07:58:50;;;;;;;17.20;2.95;;;;;;;6.14;76.92;101657.28;5098250;28;20044;-63
2021/01/17 08:01:35;;;;;;;20.50;3.17;;;;;;;6.46;76.90;101655.34;5116224;28;20040;-64
2021/01/17 08:08:35;;;;;;;15.88;2.90;;;;;;;6.13;77.50;101663.84;5116723;28;20040;-67
2021/01/17 08:11:02;;;;;;;17.58;3.05;;;;;;;6.01;78.61;101662.38;5116681;28;20490;-65
2021/01/17 08:13:33;;;;;;;13.40;2.95;;;;;;;6.02;78.59;101658.53;5115674;28;20517;-64
2021/01/17 08:16:09;;;;;;;17.55;3.30;;;;;;;6.23;78.17;101669.38;5116374;27;20089;-65
2021/01/17 08:18:38;;;;;;;15.73;3.00;;;;;;;6.21;77.74;101677.03;5115526;28;20054;-65
2021/01/17 08:22:01;;;;;;;17.83;2.88;;;;;;;6.08;77.78;101677.47;5098286;28;20524;-69
2021/01/17 08:24:47;;;;;;;18.73;3.20;;;;;;;6.15;77.13;101680.81;5116082;28;20074;-66
2021/01/17 08:27:37;;;;;;;15.18;2.92;;;;;;;6.32;77.62;101680.66;5115782;28;20051;-65
2021/01/17 08:30:20;;;;;;;17.48;3.33;;;;;;;6.21;76.61;101690.69;5116324;27;20047;-64
2021/01/17 08:32:50;;;;;;;24.42;3.67;;;;;;;6.13;76.81;101696.66;5115711;28;20399;-64
2021/01/17 08:35:38;;;;;;;13.80;3.05;;;;;;;6.30;77.01;101691.88;5115717;28;20047;-64
2021/01/17 08:38:08;;;;;;;20.85;3.40;;;;;;;6.55;75.31;101689.34;5115468;28;20051;-65
2021/01/17 08:40:35;;;;;;;21.98;3.33;;;;;;;6.90;74.09;101690.66;5115756;28;20048;-64
2021/01/17 08:43:03;;;;;;;21.40;4.50;;;;;;;6.99;73.41;101700.81;5115699;28;20051;-66
2021/01/17 08:45:34;;;;;;;19.70;3.22;;;;;;;7.08;73.95;101706.66;5116199;28;20056;-65
2021/01/17 08:48:25;;;;;;;19.33;4.18;;;;;;;7.09;73.09;101713.75;5115478;28;20047;-64
2021/01/17 08:51:32;;;;;;;21.63;3.53;;;;;;;7.21;69.78;101722.59;5129224;27;20510;-64
2021/01/17 08:58:42;;;;;;;21.48;3.00;;;;;;;6.94;71.69;101732.84;5115345;28;20048;-62
2021/01/17 09:09:27;;;;;;;14.82;3.88;;;;;;;6.18;76.56;101824.44;5115690;28;20387;-66
2021/01/17 09:12:10;;;;;;;19.85;4.20;;;;;;;5.64;79.05;101793.44;5097346;28;20039;-66
2021/01/17 09:14:38;;;;;;;21.15;4.22;;;;;;;5.53;80.66;101794.38;5097249;28;20048;-65
2021/01/17 09:17:09;;;;;;;16.80;4.15;;;;;;;5.57;82.09;101811.94;5114610;28;20378;-63
2021/01/17 09:24:11;;;;;;;18.25;3.80;;;;;;;5.25;83.69;101833.63;5114180;28;20078;-63
2021/01/17 09:26:46;;;;;;;19.38;3.40;;;;;;;5.09;84.29;101839.91;5114210;28;20051;-62
2021/01/17 09:29:24;;;;;;;18.75;3.50;;;;;;;5.19;84.98;101826.44;5114242;28;20398;-63
2021/01/17 09:31:56;;;;;;;17.25;3.17;;;;;;;5.01;84.18;101831.31;5096251;28;20051;-70
2021/01/17 09:38:49;;;;;;;12.93;3.33;;;;;;;5.29;84.96;101823.00;5113968;28;20047;-64
2021/01/17 09:45:07;;;;;;;17.80;3.42;;;;;;;5.33;83.89;101841.41;5113573;28;20044;-64
2021/01/17 09:47:36;;;;;;;24.10;4.00;;;;;;;5.29;83.65;101850.31;5113615;28;20051;-62
2021/01/17 09:54:53;;;;;;;20.75;4.60;;;;;;;6.07;81.44;101850.00;5114089;28;20047;-64
2021/01/17 09:57:23;;;;;;;19.35;3.83;;;;;;;5.84;81.65;101864.78;5113989;28;20051;-65
2021/01/17 09:59:54;;;;;;;18.33;4.60;;;;;;;5.81;81.67;101861.69;5112583;28;20043;-64
2021/01/17 10:02:23;;;;;;;17.60;3.80;;;;;;;5.46;82.43;101853.84;5115275;28;20051;-63
2021/01/17 10:09:19;;;;;;;15.35;3.55;;;;;;;5.57;82.84;101872.06;5114157;28;20391;-70
2021/01/17 10:11:52;;;;;;;17.42;3.38;;;;;;;5.46;82.88;101876.53;5113868;28;20048;-70
2021/01/17 10:14:25;;;;;;;18.20;4.10;;;;;;;5.39;82.32;101886.81;5113081;28;20047;-66
2021/01/17 10:16:53;;;;;;;19.67;3.70;;;;;;;5.51;83.26;101878.50;5113283;28;20047;-68
2021/01/17 10:19:24;;;;;;;14.55;2.92;;;;;;;5.49;82.48;101886.16;5113060;28;20483;-68
2021/01/17 10:21:52;;;;;;;17.00;3.08;;;;;;;5.61;82.67;101895.06;5062339;28;20055;-67
2021/01/17 10:24:21;;;;;;;19.30;5.65;;;;;;;5.83;81.13;101904.16;5113343;28;20050;-67
2021/01/17 10:26:52;;;;;;;18.30;3.53;;;;;;;5.69;81.88;101908.28;5113611;28;20074;-67
2021/01/17 10:29:22;;;;;;;17.95;3.85;;;;;;;6.09;81.58;101892.44;5112817;28;20052;-66
2021/01/17 10:31:53;;;;;;;16.17;3.42;;;;;;;5.97;80.79;101904.59;5112126;28;20483;-66
2021/01/17 10:34:22;;;;;;;21.52;3.78;;;;;;;6.01;80.97;101911.22;5113307;28;20044;-68
2021/01/17 10:36:56;;;;;;;17.27;3.83;;;;;;;6.04;81.47;101906.06;5095769;28;20044;-66
2021/01/17 10:39:24;;;;;;;23.63;3.85;;;;;;;6.11;80.05;101905.88;5095317;28;20052;-68
2021/01/17 10:42:02;;;;;;;18.27;3.75;;;;;;;5.95;80.84;101895.81;5113418;28;20052;-66
2021/01/17 10:48:17;;;;;;;24.55;4.57;;;;;;;6.39;79.02;101902.91;5113236;28;20047;-70
2021/01/17 10:51:19;;;;;;;55.92;16.10;;;;;;;6.93;82.41;101906.47;5112314;28;20055;-70
2021/01/17 10:57:36;;;;;;;46.00;8.93;;;;;;;7.11;78.73;101912.41;5113225;28;20084;-71
2021/01/17 11:03:53;;;;;;;31.58;6.15;;;;;;;7.97;74.06;101902.81;5113195;28;20159;-69
2021/01/17 11:14:04;;;;;;;32.92;7.38;;;;;;;7.34;75.98;101905.72;5113444;28;20067;-74
2021/01/17 11:16:32;;;;;;;31.98;7.20;;;;;;;7.39;77.29;101895.59;5112824;28;20052;-70
2021/01/17 11:27:41;;;;;;;28.05;4.30;;;;;;;7.29;75.19;101901.03;5477907;22;20057;-68
2021/01/17 11:30:13;;;;;;;27.27;4.53;;;;;;;7.07;75.23;101891.25;5020650;28;20082;-71
2021/01/17 11:32:40;;;;;;;26.75;5.57;;;;;;;7.05;75.39;101896.16;4996111;28;20175;-74
2021/01/17 11:35:27;;;;;;;29.33;6.00;;;;;;;7.11;74.91;101908.81;4992180;28;20060;-76
2021/01/17 11:37:55;;;;;;;24.58;5.07;;;;;;;7.45;76.17;101910.19;5032882;28;20053;-77
2021/01/17 11:40:22;;;;;;;35.00;5.25;;;;;;;7.60;75.26;101911.09;5034818;28;20056;-73
2021/01/17 11:42:49;;;;;;;29.17;4.95;;;;;;;7.39;74.97;101913.97;5034846;28;20053;-75
2021/01/17 11:45:21;;;;;;;24.70;6.30;;;;;;;7.65;74.91;101915.81;5027101;28;20034;-76
2021/01/17 11:48:04;;;;;;;31.65;5.78;;;;;;;7.68;74.38;101912.53;5003958;28;20072;-68
2021/01/17 11:50:31;;;;;;;28.95;6.20;;;;;;;7.48;75.50;101913.22;5029726;28;20060;-70
2021/01/17 11:53:03;;;;;;;30.23;6.07;;;;;;;7.64;75.90;101912.22;5017955;28;20488;-68
2021/01/17 11:55:30;;;;;;;26.05;5.50;;;;;;;7.75;75.42;101899.41;5007771;28;20061;-69
2021/01/17 11:58:08;;;;;;;32.40;4.85;;;;;;;7.80;73.57;101908.50;5027999;28;20057;-68
2021/01/17 12:00:47;;;;;;;29.05;5.53;;;;;;;7.68;73.95;101913.38;5029320;28;20057;-78
2021/01/17 12:03:44;;;;;;;27.38;4.38;;;;;;;7.43;74.55;101915.94;5021967;28;20053;-79
2021/01/17 12:06:16;;;;;;;25.10;5.63;;;;;;;7.35;75.57;101910.09;4973507;28;20055;-78
2021/01/17 12:09:06;;;;;;;26.55;5.50;;;;;;;7.78;75.42;101926.28;4990808;28;20047;-80
2021/01/17 12:11:46;;;;;;;28.63;5.57;;;;;;;7.72;74.27;101924.63;4969976;28;20218;-74
2021/01/17 12:14:13;;;;;;;;;;;;;;;8.22;75.38;101930.38;4957763;28;20469;-75
2021/01/17 12:16:44;;;;;;;28.35;5.20;;;;;;;8.29;72.56;101938.38;4980661;28;19922;-76
2021/01/17 12:19:14;;;;;;;21.00;4.27;;;;;;;8.23;71.93;101932.00;4948960;28;20149;-68
2021/01/17 12:21:42;;;;;;;23.65;4.72;;;;;;;8.21;72.72;101934.19;4982591;28;20640;-73
2021/01/17 12:24:12;;;;;;;22.98;4.72;;;;;;;8.32;73.30;101935.91;4969973;28;20055;-70
2021/01/17 12:26:40;;;;;;;24.63;4.45;;;;;;;8.38;72.05;101943.09;4971245;28;20039;-73
2021/01/17 12:29:08;;;;;;;23.50;5.07;;;;;;;8.49;71.60;101944.75;4981571;28;20049;-74
2021/01/17 12:31:36;;;;;;;24.40;4.32;;;;;;;8.75;70.36;101940.97;4984110;28;20051;-81
2021/01/17 12:34:04;;;;;;;17.67;3.88;;;;;;;8.66;69.23;101948.13;4959227;28;20070;-69
2021/01/17 12:36:38;;;;;;;31.60;5.30;;;;;;;8.28;70.61;101945.78;4977849;28;20047;-72
2021/01/17 12:39:07;;;;;;;19.73;4.38;;;;;;;8.17;71.38;101948.72;4968455;28;20054;-73
2021/01/17 12:41:36;;;;;;;26.45;4.75;;;;;;;8.27;71.76;101949.63;4962083;28;20049;-79
2021/01/17 12:44:07;;;;;;;21.00;4.88;;;;;;;8.40;71.58;101948.31;5029057;28;20060;-78
2021/01/17 12:46:37;;;;;;;20.55;4.68;;;;;;;8.12;70.76;101948.69;4995620;28;20038;-72
2021/01/17 12:49:07;;;;;;;19.77;5.15;;;;;;;8.14;71.26;101952.84;5012366;28;20404;-76
2021/01/17 12:51:37;;;;;;;;;;;;;;;8.04;71.22;101958.25;5025625;28;20045;-73
2021/01/17 12:54:05;;;;;;;19.70;4.20;;;;;;;7.88;69.89;101948.28;5029201;28;19928;-75
2021/01/17 12:56:32;;;;;;;20.63;4.57;;;;;;;7.62;70.16;101950.06;5026594;28;20041;-74
2021/01/17 12:59:00;;;;;;;23.92;4.05;;;;;;;7.52;70.56;101954.63;5024911;28;20415;-76